Alta, California
Current Conditions -  °F | °C
As of 2:52 PM on Thursday 23 Oct 2014 (Local Time) from KBLU Reporting Station
Overcast Overcast  
Wind Chill: 55°   Ceiling: 10000
Heat Index: 55°   Visibility: 10mi
Dew Point: 36°   Wind: 7mph
Humidity: 49%   Direction: 160°SSE
Pressure: 30.16"   Gusts: NA
Location:  39.21°N, 120.81°W
Report Text: KBLU 232152Z AUTO 16006KT 10SM OVC100 13/02 A3016 RMK AO2 SLP161 T01280022 $
Loading
Personal Weather Stations






























Interactive Weather Map
Tropical Storm Tracking
New forecast layout! Learn more

10-Day Weather Forecast

Advertisements
Track Severe Weather on mobile